Time;durP1;ratioP1;P1;durP2;ratioP2;P2;SDS_P1;SDS_P2;PMS_P1;PMS_P2;Temp;Humidity;BMP_temperature;BMP_pressure;BME280_temperature;BME280_humidity;BME280_pressure;Samples;Min_cycle;Max_cycle;Signal;HPM_P1;HPM_P2
2022/04/14 00:00:58;;;;;;;3.72;2.90;;;;;;;19.88;44.02;101430.63;4899246;29;20049;-76
2022/04/14 00:03:26;;;;;;;4.15;3.00;;;;;;;19.88;44.05;101427.09;4898626;29;20049;-76
2022/04/14 00:05:54;;;;;;;3.47;2.65;;;;;;;19.88;44.03;101427.09;4898274;29;20424;-76
2022/04/14 00:08:21;;;;;;;4.00;3.03;;;;;;;19.87;43.93;101430.75;4899107;29;20045;-76
2022/04/14 00:10:49;;;;;;;5.10;2.78;;;;;;;19.87;44.00;101428.06;4898789;29;20057;-75
2022/04/14 00:13:16;;;;;;;5.82;3.25;;;;;;;19.86;43.98;101424.53;4899070;29;20382;-76
2022/04/14 00:15:44;;;;;;;4.82;2.97;;;;;;;19.86;43.79;101424.53;4899843;29;20057;-76
2022/04/14 00:18:11;;;;;;;4.28;2.42;;;;;;;19.87;44.03;101425.38;4899829;29;20041;-76
2022/04/14 00:20:39;;;;;;;5.40;2.85;;;;;;;19.85;43.90;101419.25;4898343;29;20052;-76
2022/04/14 00:23:06;;;;;;;4.28;3.05;;;;;;;19.85;43.79;101427.31;4898418;29;20052;-76
2022/04/14 00:25:34;;;;;;;6.65;3.00;;;;;;;19.86;43.80;101418.31;4898484;29;20052;-76
2022/04/14 00:28:01;;;;;;;3.10;2.70;;;;;;;19.85;43.97;101425.53;4899415;29;20507;-75
2022/04/14 00:30:28;;;;;;;5.00;2.90;;;;;;;19.85;43.83;101430.00;4899641;29;20059;-76
2022/04/14 00:32:56;;;;;;;6.72;2.63;;;;;;;19.84;43.82;101425.63;4899910;29;20048;-76
2022/04/14 00:35:24;;;;;;;4.93;3.17;;;;;;;19.84;43.93;101431.00;4899162;29;20055;-76
2022/04/14 00:37:51;;;;;;;3.95;2.70;;;;;;;19.84;43.84;101425.63;4900338;29;20045;-76
2022/04/14 00:40:18;;;;;;;5.57;3.25;;;;;;;19.84;43.85;101437.22;4901367;29;20376;-76
2022/04/14 00:42:45;;;;;;;4.80;2.80;;;;;;;19.83;43.81;101427.47;4899790;29;20048;-76
2022/04/14 00:45:14;;;;;;;4.53;2.78;;;;;;;19.84;43.99;101428.31;4899174;29;20051;-76
2022/04/14 00:47:41;;;;;;;6.22;2.80;;;;;;;19.83;43.77;101424.78;4898661;29;20055;-76
2022/04/14 00:50:09;;;;;;;3.53;2.80;;;;;;;19.84;43.67;101433.69;4898680;29;20502;-76
2022/04/14 00:52:44;;;;;;;5.05;2.90;;;;;;;19.82;43.73;101438.34;4899853;29;20049;-76
2022/04/14 00:55:13;;;;;;;3.95;3.15;;;;;;;19.83;43.64;101434.66;4899776;29;20459;-76
2022/04/14 00:57:41;;;;;;;5.47;3.20;;;;;;;19.83;43.81;101434.66;4899178;29;20049;-76
2022/04/14 01:00:09;;;;;;;4.28;2.80;;;;;;;19.82;43.67;101427.59;4898611;29;20056;-76
2022/04/14 01:02:43;;;;;;;4.38;3.10;;;;;;;19.81;43.56;101425.84;4898887;29;20056;-76
2022/04/14 01:05:10;;;;;;;4.40;2.58;;;;;;;19.81;43.53;101429.44;4897473;29;20049;-75
2022/04/14 01:07:38;;;;;;;4.63;3.50;;;;;;;19.81;43.80;101431.22;4897346;29;20056;-76
2022/04/14 01:10:06;;;;;;;3.97;2.90;;;;;;;19.80;43.76;101426.84;4898334;29;20052;-76
2022/04/14 01:12:33;;;;;;;5.55;3.20;;;;;;;19.81;43.63;101425.84;4896692;29;20068;-76
2022/04/14 01:15:00;;;;;;;3.90;2.90;;;;;;;19.80;43.66;101437.59;4897570;29;20523;-76
2022/04/14 01:17:28;;;;;;;5.38;3.35;;;;;;;19.80;43.70;101440.28;4898930;29;20468;-76
2022/04/14 01:19:55;;;;;;;5.00;3.20;;;;;;;19.79;43.45;101438.56;4898858;29;20044;-76
2022/04/14 01:22:27;;;;;;;3.88;2.90;;;;;;;19.79;43.58;101439.41;4898786;29;20045;-75
2022/04/14 01:24:57;;;;;;;4.03;2.80;;;;;;;19.79;43.45;101444.78;4898509;29;20053;-76
2022/04/14 01:27:25;;;;;;;4.35;2.85;;;;;;;19.80;43.49;101448.34;4898086;29;20055;-76
2022/04/14 01:29:53;;;;;;;4.30;2.83;;;;;;;19.79;43.54;101447.47;4898394;29;20045;-76
2022/04/14 01:32:22;;;;;;;5.25;2.97;;;;;;;19.77;43.43;101446.75;4897235;29;20053;-75
2022/04/14 01:34:50;;;;;;;4.85;3.20;;;;;;;19.79;43.41;101449.31;4897187;29;20044;-76
2022/04/14 01:37:18;;;;;;;4.82;2.83;;;;;;;19.78;43.29;101451.16;4898593;29;20063;-76
2022/04/14 01:39:45;;;;;;;5.30;3.15;;;;;;;19.78;43.27;101451.16;4898078;29;20041;-76
2022/04/14 01:42:13;;;;;;;4.57;3.05;;;;;;;19.78;43.36;101453.00;4898498;29;20048;-76
2022/04/14 01:44:40;;;;;;;3.58;3.05;;;;;;;19.77;43.36;101452.13;4898384;29;20052;-76
2022/04/14 01:47:07;;;;;;;3.15;2.28;;;;;;;19.78;43.58;101444.94;4897983;29;20052;-76
2022/04/14 01:49:35;;;;;;;4.35;3.20;;;;;;;19.77;43.47;101446.75;4898756;29;20480;-76
2022/04/14 01:52:02;;;;;;;4.00;3.03;;;;;;;19.76;43.31;101445.03;4898629;29;20381;-76
2022/04/14 01:54:30;;;;;;;5.20;2.80;;;;;;;19.76;43.40;101445.88;4898162;29;20052;-75
2022/04/14 01:56:57;;;;;;;3.95;2.92;;;;;;;19.76;43.36;101440.50;4897514;29;20466;-76
2022/04/14 01:59:24;;;;;;;4.80;3.40;;;;;;;19.75;43.48;101443.31;4897612;29;20393;-76
2022/04/14 02:01:52;;;;;;;4.47;2.85;;;;;;;19.76;43.32;101450.41;4897291;29;20476;-76
2022/04/14 02:04:19;;;;;;;3.45;2.55;;;;;;;19.75;43.17;101448.69;4897208;29;20049;-76
2022/04/14 02:06:47;;;;;;;5.50;3.08;;;;;;;19.75;43.18;101448.69;4896861;29;20404;-76
2022/04/14 02:09:14;;;;;;;3.45;2.58;;;;;;;19.75;43.13;101446.00;4881751;29;20049;-76
2022/04/14 02:11:42;;;;;;;5.53;3.00;;;;;;;19.74;43.20;101447.84;4897178;29;20049;-76
2022/04/14 02:14:09;;;;;;;4.63;2.83;;;;;;;19.74;43.19;101452.38;4897221;29;20049;-76
2022/04/14 02:16:36;;;;;;;4.13;2.58;;;;;;;19.74;43.17;101453.22;4897062;29;20408;-76
2022/04/14 02:19:04;;;;;;;3.70;2.47;;;;;;;19.73;43.13;101446.13;4898407;29;20056;-76
2022/04/14 02:21:31;;;;;;;4.35;3.10;;;;;;;19.73;43.19;101448.81;4897180;29;20381;-76
2022/04/14 02:23:58;;;;;;;4.35;2.70;;;;;;;19.73;43.28;101450.66;4896899;29;20404;-75
2022/04/14 02:26:26;;;;;;;4.82;2.28;;;;;;;19.73;43.28;101450.66;4896199;29;20048;-76
2022/04/14 02:28:54;;;;;;;4.78;2.63;;;;;;;19.72;43.20;101447.09;4895080;29;20057;-76
2022/04/14 02:31:21;;;;;;;4.03;3.10;;;;;;;19.72;43.06;101446.25;4897883;29;20049;-75
2022/04/14 02:33:49;;;;;;;4.20;3.05;;;;;;;19.72;43.04;101451.63;4897869;28;20052;-76
2022/04/14 02:36:16;;;;;;;3.78;2.63;;;;;;;19.71;43.04;101457.97;4897931;29;20056;-76
2022/04/14 02:38:45;;;;;;;5.03;3.05;;;;;;;19.72;42.93;101452.47;4898286;29;20059;-75
2022/04/14 02:41:12;;;;;;;3.78;2.58;;;;;;;19.71;43.17;101448.06;4897699;29;20393;-75
2022/04/14 02:43:39;;;;;;;4.15;3.00;;;;;;;19.72;43.13;101447.09;4897887;29;20064;-75
2022/04/14 02:46:24;;;;;;;3.78;2.70;;;;;;;19.70;42.94;101449.06;4897898;29;20040;-76
2022/04/14 02:48:52;;;;;;;3.78;2.90;;;;;;;19.70;43.02;101445.53;4897348;29;20060;-76
2022/04/14 02:51:19;;;;;;;4.30;2.75;;;;;;;19.70;42.99;101443.69;4898957;29;20393;-76
2022/04/14 02:53:46;;;;;;;4.00;2.50;;;;;;;19.70;43.06;101445.53;4897716;29;20052;-76
2022/04/14 02:56:14;;;;;;;4.32;2.55;;;;;;;19.70;43.09;101438.31;4897538;29;20048;-76
2022/04/14 02:58:41;;;;;;;4.13;2.72;;;;;;;19.70;43.08;101445.53;4897136;29;20049;-76
2022/04/14 03:01:08;;;;;;;3.92;3.00;;;;;;;19.69;42.94;101444.66;4896943;29;20056;-76
2022/04/14 03:03:36;;;;;;;5.07;2.70;;;;;;;19.69;43.06;101439.28;4896937;29;20055;-76
2022/04/14 03:06:03;;;;;;;4.07;2.83;;;;;;;19.68;43.03;101432.19;4897052;29;20051;-76
2022/04/14 03:08:32;;;;;;;4.55;3.00;;;;;;;19.69;42.90;101441.13;4896252;29;20049;-76
2022/04/14 03:10:59;;;;;;;6.95;3.05;;;;;;;19.69;43.05;101436.59;4896267;29;20049;-76
2022/04/14 03:13:26;;;;;;;3.97;2.63;;;;;;;19.69;42.88;101439.28;4896035;29;20056;-76
2022/04/14 03:15:54;;;;;;;4.28;3.05;;;;;;;19.69;42.84;101435.75;4895939;29;20052;-76
2022/04/14 03:18:21;;;;;;;3.38;2.65;;;;;;;19.68;42.90;101437.56;4897504;29;20057;-75
2022/04/14 03:20:49;;;;;;;5.07;2.90;;;;;;;19.67;42.89;101435.84;4897610;29;20049;-76
2022/04/14 03:23:16;;;;;;;3.90;2.70;;;;;;;19.68;42.93;101436.72;4895780;29;20086;-76
2022/04/14 03:25:45;;;;;;;4.75;3.58;;;;;;;19.68;42.90;101439.41;4896126;29;20048;-76
2022/04/14 03:28:12;;;;;;;3.95;2.97;;;;;;;19.67;42.72;101435.00;4896427;29;20052;-76
2022/04/14 03:30:39;;;;;;;4.15;3.00;;;;;;;19.66;42.94;101433.31;4897269;29;20047;-76
2022/04/14 03:33:07;;;;;;;3.60;2.88;;;;;;;19.67;42.92;101438.53;4895549;29;20055;-75
2022/04/14 03:35:34;;;;;;;6.15;3.15;;;;;;;19.65;42.78;101435.13;4895735;29;20048;-76
2022/04/14 03:38:01;;;;;;;4.43;2.85;;;;;;;19.65;42.76;101435.13;4896066;29;20055;-75
2022/04/14 03:40:49;;;;;;;3.83;2.90;;;;;;;19.64;42.65;101430.72;4895911;29;20056;-75
2022/04/14 03:43:16;;;;;;;5.38;3.13;;;;;;;19.65;42.53;101424.41;4880449;29;20057;-76
2022/04/14 03:45:44;;;;;;;3.47;2.72;;;;;;;19.65;42.60;101434.28;4896016;29;20049;-76
2022/04/14 03:48:11;;;;;;;3.67;2.65;;;;;;;19.64;42.56;101428.03;4896004;29;20068;-76
2022/04/14 03:50:38;;;;;;;4.28;3.10;;;;;;;19.64;42.58;101432.56;4896676;29;20055;-76
2022/04/14 03:53:05;;;;;;;3.95;3.20;;;;;;;19.63;42.45;101431.69;4896356;29;20082;-76
2022/04/14 03:55:33;;;;;;;3.88;2.75;;;;;;;19.63;42.45;101431.69;4894402;29;20053;-76
2022/04/14 03:58:00;;;;;;;4.60;2.80;;;;;;;19.64;42.58;101435.25;4895653;29;20056;-76
2022/04/14 04:00:27;;;;;;;4.57;3.22;;;;;;;19.63;42.54;101434.38;4896241;29;20381;-75
2022/04/14 04:02:55;;;;;;;5.45;2.38;;;;;;;19.63;42.51;101439.75;4896510;29;20055;-75
2022/04/14 04:05:22;;;;;;;5.07;2.75;;;;;;;19.62;42.56;101438.06;4896740;29;20057;-76
2022/04/14 04:07:50;;;;;;;3.63;2.63;;;;;;;19.62;42.45;101438.06;4896723;29;20060;-76
2022/04/14 04:10:17;;;;;;;4.53;2.95;;;;;;;19.61;42.59;101430.97;4895019;29;20040;-75
2022/04/14 04:12:44;;;;;;;5.50;2.72;;;;;;;19.61;42.63;101432.78;4895604;29;20049;-76
2022/04/14 04:15:12;;;;;;;5.60;2.58;;;;;;;19.61;42.66;101433.66;4895452;29;20056;-75
2022/04/14 04:17:39;;;;;;;4.38;3.22;;;;;;;19.62;42.54;101434.50;4895673;29;20400;-76
2022/04/14 04:20:07;;;;;;;5.60;2.78;;;;;;;19.61;42.57;101425.59;4895908;29;20045;-76
2022/04/14 04:22:34;;;;;;;4.80;2.90;;;;;;;19.61;42.40;101428.28;4896351;29;20060;-75
2022/04/14 04:28:07;;;;;;;3.95;2.63;;;;;;;19.60;42.56;101434.59;4896249;29;20081;-75
2022/04/14 04:30:51;;;;;;;4.03;2.58;;;;;;;19.60;42.46;101431.03;4896201;29;20049;-76
2022/04/14 04:33:19;;;;;;;5.05;2.75;;;;;;;19.59;42.42;101440.94;4895527;29;20044;-75
2022/04/14 04:35:47;;;;;;;4.22;2.50;;;;;;;19.60;42.54;101442.63;4898351;29;20045;-76
2022/04/14 04:38:14;;;;;;;3.42;2.72;;;;;;;19.59;42.39;101440.94;4899716;29;20056;-75
2022/04/14 04:40:41;;;;;;;3.60;3.05;;;;;;;19.59;42.25;101437.41;4899189;29;20515;-75
2022/04/14 04:43:09;;;;;;;3.40;2.70;;;;;;;19.58;42.45;101438.38;4898190;29;20052;-76
2022/04/14 04:45:36;;;;;;;3.40;2.45;;;;;;;19.59;42.17;101442.78;4899089;29;20052;-76
2022/04/14 04:48:04;;;;;;;3.38;2.70;;;;;;;19.58;42.34;101441.91;4899018;29;20075;-76
2022/04/14 04:50:32;;;;;;;3.50;2.40;;;;;;;19.59;42.40;101446.31;4899212;29;20048;-76
2022/04/14 04:52:59;;;;;;;2.83;2.13;;;;;;;19.58;42.31;101452.66;4898749;29;20060;-75
2022/04/14 04:55:27;;;;;;;6.13;2.85;;;;;;;19.57;42.25;101444.69;4898081;29;20048;-76
2022/04/14 04:57:54;;;;;;;5.07;2.65;;;;;;;19.58;42.14;101454.50;4911585;29;20052;-76
2022/04/14 05:00:21;;;;;;;4.28;2.15;;;;;;;19.58;42.42;101451.81;4899165;29;20044;-76
2022/04/14 05:02:49;;;;;;;3.97;2.83;;;;;;;19.58;42.24;101454.50;4899461;29;20079;-75
2022/04/14 05:05:17;;;;;;;4.05;2.47;;;;;;;19.57;42.22;101458.13;4898697;29;20048;-76
2022/04/14 05:07:45;;;;;;;5.60;2.83;;;;;;;19.56;42.09;101457.28;4897571;29;20056;-76
2022/04/14 05:10:12;;;;;;;3.55;2.72;;;;;;;19.56;42.10;101461.81;4897567;29;20048;-76
2022/04/14 05:12:40;;;;;;;4.20;2.83;;;;;;;19.56;42.09;101461.81;4896969;29;20061;-75
2022/04/14 05:15:08;;;;;;;3.22;2.60;;;;;;;19.55;42.19;101457.41;4898339;29;20055;-76
2022/04/14 05:17:35;;;;;;;3.50;2.42;;;;;;;19.55;42.15;101465.47;4898141;29;20492;-76
2022/04/14 05:20:03;;;;;;;4.07;2.45;;;;;;;19.55;42.19;101465.47;4898512;29;20060;-76
2022/04/14 05:22:30;;;;;;;6.25;2.90;;;;;;;19.55;42.19;101470.84;4898888;29;20052;-76
2022/04/14 05:24:58;;;;;;;4.65;2.95;;;;;;;19.54;42.12;101472.66;4898421;29;20048;-76
2022/04/14 05:27:25;;;;;;;4.10;2.55;;;;;;;19.54;42.19;101472.66;4898224;29;20052;-76
2022/04/14 05:29:52;;;;;;;3.97;2.75;;;;;;;19.53;42.16;101460.22;4897250;29;20055;-76
2022/04/14 05:32:21;;;;;;;3.45;2.70;;;;;;;19.54;42.26;101466.44;4896529;29;20051;-76
2022/04/14 05:34:48;;;;;;;4.38;2.55;;;;;;;19.54;42.06;101469.13;4897391;29;20064;-76
2022/04/14 05:37:15;;;;;;;3.17;2.35;;;;;;;19.52;42.09;101474.59;4899422;29;20057;-76
2022/04/14 05:39:42;;;;;;;4.65;2.70;;;;;;;19.54;42.25;101477.19;4899623;29;20055;-76
2022/04/14 05:42:10;;;;;;;4.85;2.35;;;;;;;19.54;41.97;101479.88;4897347;29;20135;-76
2022/04/14 05:44:38;;;;;;;6.22;2.63;;;;;;;19.52;42.27;101479.97;4898738;29;20044;-76
2022/04/14 05:47:05;;;;;;;4.35;2.92;;;;;;;19.52;42.16;101474.59;4898044;29;20060;-76
2022/04/14 05:49:32;;;;;;;2.78;2.30;;;;;;;19.52;42.05;101466.53;4900123;29;20048;-75
2022/04/14 05:52:00;;;;;;;4.22;2.50;;;;;;;19.52;42.21;101478.13;4899063;29;20061;-76
2022/04/14 05:54:27;;;;;;;2.90;2.10;;;;;;;19.51;42.23;101465.69;4898935;29;20412;-76
2022/04/14 05:56:54;;;;;;;4.22;2.70;;;;;;;19.51;42.22;101463.00;4896192;29;20048;-76
2022/04/14 05:59:22;;;;;;;4.15;2.42;;;;;;;19.51;42.08;101465.69;4896897;29;20056;-76
2022/04/14 06:01:49;;;;;;;5.35;2.47;;;;;;;19.52;42.25;101461.19;4897433;29;20052;-76
2022/04/14 06:04:21;;;;;;;3.87;2.43;;;;;;;19.51;42.19;101459.47;4897416;29;20044;-76
2022/04/14 06:06:49;;;;;;;3.60;2.53;;;;;;;19.51;42.13;101468.38;4897982;29;20287;-76
2022/04/14 06:09:16;;;;;;;3.35;2.70;;;;;;;19.51;42.29;101464.84;4898899;29;20377;-76
2022/04/14 06:11:43;;;;;;;3.67;2.65;;;;;;;19.52;42.28;101466.53;4898823;29;20037;-76
2022/04/14 06:14:11;;;;;;;4.93;2.90;;;;;;;19.51;42.14;101464.84;4897895;29;20064;-77
2022/04/14 06:16:38;;;;;;;3.25;2.40;;;;;;;19.50;42.39;101455.94;4898483;29;20049;-76
2022/04/14 06:19:06;;;;;;;3.17;2.47;;;;;;;19.51;42.28;101464.84;4898098;29;20052;-76
2022/04/14 06:21:33;;;;;;;5.68;2.80;;;;;;;19.51;42.27;101456.78;4898477;29;20044;-76
2022/04/14 06:24:00;;;;;;;3.97;2.70;;;;;;;19.50;42.46;101464.00;4897191;29;20052;-76
2022/04/14 06:26:33;;;;;;;3.42;2.78;;;;;;;19.51;42.45;101470.22;4898723;29;20051;-76
2022/04/14 06:29:00;;;;;;;6.78;2.95;;;;;;;19.50;42.51;101472.03;4899306;29;20053;-76
2022/04/14 06:31:27;;;;;;;3.55;2.70;;;;;;;19.52;42.43;101466.53;4897836;29;20059;-77
2022/04/14 06:33:55;;;;;;;3.67;2.53;;;;;;;19.51;42.49;101472.91;4898066;29;20040;-76
2022/04/14 06:36:22;;;;;;;3.38;2.40;;;;;;;19.50;42.35;101472.03;4896932;29;20488;-76
2022/04/14 06:38:49;;;;;;;3.90;2.75;;;;;;;19.51;42.51;101472.91;4897697;29;20516;-76
2022/04/14 06:41:17;;;;;;;5.60;2.67;;;;;;;19.51;42.36;101464.84;4898693;29;20119;-76
2022/04/14 06:43:45;;;;;;;3.30;2.40;;;;;;;19.51;42.68;101467.53;4897544;29;20519;-76
2022/04/14 06:46:12;;;;;;;3.33;2.58;;;;;;;19.51;42.48;101462.16;4899171;29;20485;-76
2022/04/14 06:48:40;;;;;;;3.75;2.60;;;;;;;19.52;42.68;101469.22;4897465;29;20131;-76
2022/04/14 06:51:08;;;;;;;3.60;2.63;;;;;;;19.52;42.77;101463.84;4897701;29;20049;-76
2022/04/14 06:53:36;;;;;;;3.72;2.38;;;;;;;19.52;42.85;101470.09;4898111;29;20072;-76
2022/04/14 06:56:06;;;;;;;3.28;2.42;;;;;;;19.52;42.72;101471.91;4898093;29;20053;-76
2022/04/14 06:58:35;;;;;;;4.68;3.10;;;;;;;19.53;42.79;101470.97;4898426;29;20059;-76
2022/04/14 07:01:04;;;;;;;5.03;2.47;;;;;;;19.54;42.99;101474.50;4898069;29;20405;-77
2022/04/14 07:03:31;;;;;;;4.68;2.47;;;;;;;19.55;43.03;101473.53;4898153;29;20049;-76
2022/04/14 07:06:00;;;;;;;3.92;2.30;;;;;;;19.55;42.99;101476.22;4897538;29;20063;-75
2022/04/14 07:08:27;;;;;;;4.95;2.70;;;;;;;19.55;42.81;101471.69;4897339;29;20044;-76
2022/04/14 07:10:59;;;;;;;8.02;2.92;;;;;;;19.57;43.21;101469.75;4897512;29;20048;-77
2022/04/14 07:13:26;;;;;;;5.57;2.60;;;;;;;19.58;43.17;101462.56;4896327;29;20074;-76
2022/04/14 07:15:55;;;;;;;5.15;2.97;;;;;;;19.59;43.22;101464.25;4895440;29;20056;-76
2022/04/14 07:18:23;;;;;;;5.22;2.63;;;;;;;19.60;43.14;101461.44;4895984;28;20048;-77
2022/04/14 07:20:50;;;;;;;4.63;2.70;;;;;;;19.62;43.38;101466.75;4895651;29;20060;-76
2022/04/14 07:23:17;;;;;;;3.53;2.35;;;;;;;19.64;43.49;101470.16;4895038;29;20055;-77
2022/04/14 07:25:46;;;;;;;4.65;2.70;;;;;;;19.64;43.54;101468.31;4895362;29;20060;-75
2022/04/14 07:28:14;;;;;;;3.45;2.17;;;;;;;19.66;44.10;101474.44;4895912;29;20044;-78
2022/04/14 07:30:51;;;;;;;3.75;2.70;;;;;;;19.68;43.80;101468.94;4895924;29;20374;-78
2022/04/14 07:33:19;;;;;;;3.88;2.35;;;;;;;19.69;44.16;101476.91;4895281;29;20052;-76
2022/04/14 07:35:46;;;;;;;3.67;2.65;;;;;;;19.70;44.15;101465.19;4895186;29;20059;-77
2022/04/14 07:38:16;;;;;;;11.55;3.05;;;;;;;19.74;44.53;101473.84;4895774;29;20076;-76
2022/04/14 07:40:43;;;;;;;4.32;2.47;;;;;;;19.73;44.26;101462.25;4895849;29;20052;-81
2022/04/14 07:43:10;;;;;;;4.18;2.67;;;;;;;19.75;44.71;101460.28;4895708;29;20057;-76
2022/04/14 07:45:39;;;;;;;3.70;2.17;;;;;;;19.78;44.35;101471.78;4878310;29;20064;-76
2022/04/14 07:48:08;;;;;;;3.83;2.55;;;;;;;19.78;44.77;101469.97;4895369;29;20061;-76
2022/04/14 07:50:36;;;;;;;4.72;2.60;;;;;;;19.80;44.20;101478.75;4895450;29;20423;-77
2022/04/14 07:53:04;;;;;;;4.00;2.45;;;;;;;19.81;44.17;101476.91;4895061;29;20048;-76
2022/04/14 07:55:33;;;;;;;5.45;2.97;;;;;;;19.82;44.38;101481.31;4895062;29;20392;-78
2022/04/14 07:58:07;;;;;;;5.05;2.70;;;;;;;19.83;44.99;101486.56;4878171;29;20180;-76
2022/04/14 08:00:39;;;;;;;7.15;4.20;;;;;;;19.84;44.06;101488.28;4893873;29;20068;-78
2022/04/14 08:03:07;;;;;;;6.47;2.83;;;;;;;19.86;44.71;101485.47;4895677;29;20345;-78
2022/04/14 08:05:41;;;;;;;7.47;2.80;;;;;;;19.88;44.55;101478.16;4894808;29;20052;-76
2022/04/14 08:08:10;;;;;;;5.85;2.97;;;;;;;19.89;44.80;101482.53;4895247;29;20048;-76
2022/04/14 08:10:40;;;;;;;6.72;3.47;;;;;;;19.90;44.02;101478.91;4897341;29;20389;-77
2022/04/14 08:13:07;;;;;;;7.63;3.83;;;;;;;19.90;44.01;101482.44;4898197;29;20044;-78
2022/04/14 08:15:35;;;;;;;9.15;3.13;;;;;;;19.91;44.53;101480.59;4898443;29;20060;-80
2022/04/14 08:18:06;;;;;;;6.68;3.22;;;;;;;19.93;44.31;101484.88;4881544;29;20079;-76
2022/04/14 08:20:35;;;;;;;5.68;3.10;;;;;;;19.94;44.15;101489.28;4897961;29;20048;-78
2022/04/14 08:23:03;;;;;;;4.45;2.88;;;;;;;19.95;44.37;101487.44;4898074;29;20060;-76
2022/04/14 08:25:33;;;;;;;3.92;3.03;;;;;;;19.97;44.23;101480.09;4898170;29;20412;-79
2022/04/14 08:28:02;;;;;;;5.50;3.13;;;;;;;19.98;44.51;101476.47;4898045;29;20492;-79
2022/04/14 08:30:32;;;;;;;4.75;2.70;;;;;;;19.98;44.35;101471.94;4897879;29;20059;-79
2022/04/14 08:33:01;;;;;;;4.28;3.20;;;;;;;20.00;44.25;101474.50;4898002;29;20044;-76
2022/04/14 08:35:31;;;;;;;5.00;3.60;;;;;;;20.00;44.13;101479.88;4898319;29;20056;-76
2022/04/14 08:38:02;;;;;;;5.25;2.92;;;;;;;20.02;44.08;101483.31;4898345;29;20052;-78
2022/04/14 08:40:38;;;;;;;6.28;3.60;;;;;;;20.02;44.36;101483.31;4898104;29;20072;-76
2022/04/14 08:43:32;;;;;;;4.75;3.10;;;;;;;20.02;44.10;101483.31;4898058;29;20140;-76
2022/04/14 08:46:01;;;;;;;4.72;3.10;;;;;;;20.04;44.36;101492.09;4897250;29;20053;-76
2022/04/14 08:48:29;;;;;;;5.82;3.10;;;;;;;20.04;44.15;101481.34;4898017;29;20049;-77
2022/04/14 08:50:56;;;;;;;4.95;3.15;;;;;;;20.06;44.15;101490.16;4896974;29;20496;-76
2022/04/14 08:53:25;;;;;;;4.43;3.28;;;;;;;20.05;43.87;101479.50;4897679;29;20036;-78
2022/04/14 08:55:53;;;;;;;6.22;2.95;;;;;;;20.06;43.86;101481.25;4898008;29;20483;-76
2022/04/14 08:58:26;;;;;;;5.43;3.20;;;;;;;20.06;43.94;101484.78;4897827;29;20052;-77
2022/04/14 09:00:56;;;;;;;5.05;3.38;;;;;;;20.07;43.50;101481.09;4896719;29;20507;-77
2022/04/14 09:03:44;;;;;;;8.27;3.67;;;;;;;20.06;43.31;101476.72;4897385;29;20049;-76
2022/04/14 09:06:12;;;;;;;5.47;3.45;;;;;;;20.07;43.61;101480.25;4897314;29;20054;-76
2022/04/14 09:08:40;;;;;;;7.50;3.85;;;;;;;20.07;43.81;101481.09;4897788;29;20052;-76
2022/04/14 09:11:08;;;;;;;5.60;3.65;;;;;;;20.08;43.59;101487.34;4897336;29;20045;-77
2022/04/14 09:13:43;;;;;;;5.55;3.20;;;;;;;20.09;44.08;101484.50;4897250;29;20489;-76
2022/04/14 09:16:11;;;;;;;3.92;3.08;;;;;;;20.09;43.91;101491.72;4896475;29;20504;-77
2022/04/14 09:18:38;;;;;;;4.32;2.95;;;;;;;20.09;43.88;101489.03;4896581;29;20056;-78
2022/04/14 09:21:07;;;;;;;5.00;3.47;;;;;;;20.09;43.71;101489.88;4896994;29;20059;-76
2022/04/14 09:23:36;;;;;;;4.03;3.08;;;;;;;20.10;43.60;101496.16;4897306;29;20052;-77
2022/04/14 09:26:23;;;;;;;4.38;3.03;;;;;;;20.10;43.60;101493.47;4880237;29;20057;-78
2022/04/14 09:29:04;;;;;;;6.10;3.22;;;;;;;20.09;43.59;101487.19;4897538;29;20048;-76
2022/04/14 09:31:47;;;;;;;6.00;2.85;;;;;;;20.09;43.62;101487.19;4897056;29;20053;-76
2022/04/14 09:34:17;;;;;;;4.30;2.75;;;;;;;20.09;43.59;101481.81;4897790;29;20040;-76
2022/04/14 09:37:07;;;;;;;3.92;3.10;;;;;;;20.10;43.59;101480.88;4897408;29;20040;-77
2022/04/14 09:39:56;;;;;;;5.53;3.33;;;;;;;20.09;43.48;101479.13;4897704;29;20067;-76
2022/04/14 09:42:26;;;;;;;4.13;2.75;;;;;;;20.10;43.50;101478.19;4897287;29;20499;-77
2022/04/14 09:44:53;;;;;;;3.17;2.47;;;;;;;20.10;43.63;101485.41;4896789;29;20404;-79
2022/04/14 09:47:39;;;;;;;4.72;2.72;;;;;;;20.10;43.82;101475.50;4896958;29;20436;-78
2022/04/14 09:50:40;;;;;;;4.07;2.78;;;;;;;20.09;43.69;101471.06;4897483;29;20075;-78
2022/04/14 09:53:14;;;;;;;3.13;2.40;;;;;;;20.10;43.84;101470.13;4896212;29;20056;-79
2022/04/14 09:55:54;;;;;;;3.17;2.38;;;;;;;20.11;43.78;101471.81;4897493;29;20053;-76
2022/04/14 09:58:26;;;;;;;4.55;2.67;;;;;;;20.10;43.71;101467.44;4897743;29;20381;-77
2022/04/14 10:00:58;;;;;;;4.65;3.00;;;;;;;20.11;43.62;101466.44;4897048;29;20096;-78
2022/04/14 10:03:30;;;;;;;4.53;3.10;;;;;;;20.11;43.66;101460.22;4879757;29;20056;-80
2022/04/14 10:06:04;;;;;;;5.50;2.75;;;;;;;20.09;43.38;101460.31;4897830;29;20167;-79
2022/04/14 10:08:48;;;;;;;3.75;2.97;;;;;;;20.11;43.41;101461.06;4897475;29;20052;-79
2022/04/14 10:11:24;;;;;;;4.07;2.90;;;;;;;20.11;43.27;101462.91;4897491;29;20055;-77
2022/04/14 10:13:51;;;;;;;4.13;2.50;;;;;;;20.11;43.38;101458.38;4880070;29;20404;-78
2022/04/14 10:16:23;;;;;;;4.25;2.33;;;;;;;20.10;43.51;101461.22;4896351;29;20053;-78
2022/04/14 10:18:53;;;;;;;3.80;2.50;;;;;;;20.10;43.05;101459.38;4897168;29;20049;-78
2022/04/14 10:21:21;;;;;;;3.95;2.78;;;;;;;20.12;43.19;101459.22;4897128;29;20508;-80
2022/04/14 10:23:49;;;;;;;3.60;2.47;;;;;;;20.12;43.44;101453.84;4897384;29;20045;-78
2022/04/14 10:26:18;;;;;;;3.40;2.20;;;;;;;20.11;43.16;101450.31;4897189;29;20048;-78
2022/04/14 10:28:46;;;;;;;2.85;2.40;;;;;;;20.12;43.14;101449.34;4902574;29;20064;-77
2022/04/14 10:31:17;;;;;;;3.35;2.40;;;;;;;20.12;43.06;101443.97;4896980;29;20059;-77
2022/04/14 10:33:49;;;;;;;3.08;2.28;;;;;;;20.12;43.12;101453.84;4898999;29;20045;-78
2022/04/14 10:36:16;;;;;;;3.85;2.22;;;;;;;20.13;43.04;101451.03;4897062;29;20489;-78
2022/04/14 10:38:45;;;;;;;4.40;2.60;;;;;;;20.14;42.86;101446.53;4896145;29;20052;-78
2022/04/14 10:41:15;;;;;;;3.53;2.60;;;;;;;20.13;42.62;101451.03;4895310;29;20504;-78
2022/04/14 10:43:46;;;;;;;3.15;2.08;;;;;;;20.14;42.60;101444.72;4894973;29;20052;-77
2022/04/14 10:46:14;;;;;;;4.55;2.35;;;;;;;20.14;42.67;101444.72;4896251;29;20056;-77
2022/04/14 10:48:44;;;;;;;3.60;2.40;;;;;;;20.15;42.75;101451.78;4896493;29;20044;-77
2022/04/14 10:51:25;;;;;;;3.30;2.45;;;;;;;20.17;42.63;101446.28;4895885;29;20056;-78
2022/04/14 10:54:04;;;;;;;3.53;2.22;;;;;;;20.15;42.17;101446.41;4896643;29;20045;-76
2022/04/14 10:56:34;;;;;;;4.97;2.50;;;;;;;20.16;42.28;101444.56;4896704;29;20055;-76
2022/04/14 10:59:05;;;;;;;4.55;2.70;;;;;;;20.17;41.92;101438.22;4896467;29;20071;-77
2022/04/14 11:01:50;;;;;;;8.27;2.92;;;;;;;20.18;41.91;101446.16;4895913;29;20108;-77
2022/04/14 11:04:42;;;;;;;4.57;2.30;;;;;;;20.18;41.81;101432.72;4897188;29;20060;-78
2022/04/14 11:07:21;;;;;;;6.85;3.38;;;;;;;20.18;41.63;101427.34;4897015;29;20048;-77
2022/04/14 11:09:52;;;;;;;3.60;2.50;;;;;;;20.19;41.85;101439.81;4897955;29;20392;-78
2022/04/14 11:12:27;;;;;;;5.70;2.50;;;;;;;20.20;41.41;101430.75;4880805;29;20048;-76
2022/04/14 11:15:06;;;;;;;3.50;2.28;;;;;;;20.21;41.56;101429.78;4896306;29;20492;-77
2022/04/14 11:17:48;;;;;;;5.30;3.55;;;;;;;20.21;41.73;101429.78;4897340;29;20059;-77
2022/04/14 11:20:19;;;;;;;4.32;2.70;;;;;;;20.21;41.71;101431.59;4880974;28;20060;-77
2022/04/14 11:23:11;;;;;;;5.57;2.72;;;;;;;20.20;41.74;101414.63;4896104;29;20049;-77
2022/04/14 11:25:38;;;;;;;3.22;2.10;;;;;;;20.20;41.92;101427.22;4880123;29;20063;-77
2022/04/14 11:28:16;;;;;;;3.60;2.40;;;;;;;20.19;41.76;101425.50;4896526;29;20048;-76
2022/04/14 11:30:44;;;;;;;4.72;2.60;;;;;;;20.18;41.59;101415.75;4895988;29;20048;-77
2022/04/14 11:33:22;;;;;;;5.63;2.80;;;;;;;20.20;41.18;101416.47;4894403;29;20044;-77
2022/04/14 11:35:50;;;;;;;7.93;2.65;;;;;;;20.19;41.20;101423.69;4895384;29;20052;-77
2022/04/14 11:38:55;;;;;;;3.55;2.50;;;;;;;20.19;41.66;101422.81;4895313;29;20075;-78